sensor_id;sensor_type;location;lat;lon;timestamp;pressure;altitude;pressure_sealevel;temperature;humidity
54389;BME280;40975;50.390;8.640;2023-06-04T00:00:31;99346.94;;;11.93;66.41
54389;BME280;40975;50.390;8.640;2023-06-04T00:02:56;99348.53;;;11.86;67.02
54389;BME280;40975;50.390;8.640;2023-06-04T00:05:22;99344.50;;;11.81;67.06
54389;BME280;40975;50.390;8.640;2023-06-04T00:07:51;99344.78;;;11.78;68.02
54389;BME280;40975;50.390;8.640;2023-06-04T00:10:16;99348.28;;;11.79;69.02
54389;BME280;40975;50.390;8.640;2023-06-04T00:12:41;99336.41;;;11.73;67.99
54389;BME280;40975;50.390;8.640;2023-06-04T00:15:07;99338.94;;;11.75;67.63
54389;BME280;40975;50.390;8.640;2023-06-04T00:17:32;99333.38;;;11.68;67.70
54389;BME280;40975;50.390;8.640;2023-06-04T00:19:58;99328.31;;;11.75;67.53
54389;BME280;40975;50.390;8.640;2023-06-04T00:22:24;99328.06;;;11.68;68.62
54389;BME280;40975;50.390;8.640;2023-06-04T00:24:49;99325.66;;;11.75;67.04
54389;BME280;40975;50.390;8.640;2023-06-04T00:27:14;99330.72;;;11.68;67.54
54389;BME280;40975;50.390;8.640;2023-06-04T00:29:40;99327.97;;;11.60;68.81
54389;BME280;40975;50.390;8.640;2023-06-04T00:32:05;99324.63;;;11.58;69.58
54389;BME280;40975;50.390;8.640;2023-06-04T00:34:31;99315.69;;;11.49;69.21
54389;BME280;40975;50.390;8.640;2023-06-04T00:36:56;99329.59;;;11.43;69.54
54389;BME280;40975;50.390;8.640;2023-06-04T00:39:21;99337.19;;;11.38;69.92
54389;BME280;40975;50.390;8.640;2023-06-04T00:41:47;99333.13;;;11.33;70.29
54389;BME280;40975;50.390;8.640;2023-06-04T00:44:12;99330.06;;;11.28;70.86
54389;BME280;40975;50.390;8.640;2023-06-04T00:46:38;99327.56;;;11.27;70.44
54389;BME280;40975;50.390;8.640;2023-06-04T00:49:05;99324.50;;;11.22;71.85
54389;BME280;40975;50.390;8.640;2023-06-04T00:51:31;99327.03;;;11.13;71.02
54389;BME280;40975;50.390;8.640;2023-06-04T00:53:58;99323.56;;;11.13;71.08
54389;BME280;40975;50.390;8.640;2023-06-04T00:56:24;99328.75;;;11.04;71.52
54389;BME280;40975;50.390;8.640;2023-06-04T00:58:49;99326.22;;;11.03;72.50
54389;BME280;40975;50.390;8.640;2023-06-04T01:01:37;99333.38;;;11.02;73.93
54389;BME280;40975;50.390;8.640;2023-06-04T01:04:10;99332.41;;;10.94;72.96
54389;BME280;40975;50.390;8.640;2023-06-04T01:06:44;99334.50;;;10.90;73.69
54389;BME280;40975;50.390;8.640;2023-06-04T01:09:10;99333.00;;;10.87;73.82
54389;BME280;40975;50.390;8.640;2023-06-04T01:11:37;99332.88;;;10.79;74.05
54389;BME280;40975;50.390;8.640;2023-06-04T01:14:05;99338.03;;;10.81;75.61
54389;BME280;40975;50.390;8.640;2023-06-04T01:17:01;99337.09;;;10.72;74.41
54389;BME280;40975;50.390;8.640;2023-06-04T01:19:49;99330.91;;;10.71;75.86
54389;BME280;40975;50.390;8.640;2023-06-04T01:25:41;99335.84;;;10.47;76.73
54389;BME280;40975;50.390;8.640;2023-06-04T01:28:10;99330.28;;;10.40;77.80
54389;BME280;40975;50.390;8.640;2023-06-04T01:30:38;99327.28;;;10.23;77.55
54389;BME280;40975;50.390;8.640;2023-06-04T01:33:13;99334.69;;;10.20;78.80
54389;BME280;40975;50.390;8.640;2023-06-04T01:35:39;99331.19;;;10.09;80.13
54389;BME280;40975;50.390;8.640;2023-06-04T01:38:05;99331.91;;;10.02;80.72
54389;BME280;40975;50.390;8.640;2023-06-04T01:40:31;99326.88;;;9.99;80.90
54389;BME280;40975;50.390;8.640;2023-06-04T01:42:57;99326.72;;;9.90;80.89
54389;BME280;40975;50.390;8.640;2023-06-04T01:45:24;99327.53;;;9.81;81.53
54389;BME280;40975;50.390;8.640;2023-06-04T01:47:51;99330.31;;;9.79;82.65
54389;BME280;40975;50.390;8.640;2023-06-04T01:50:16;99329.75;;;9.76;82.76
54389;BME280;40975;50.390;8.640;2023-06-04T01:52:42;99330.16;;;9.71;83.01
54389;BME280;40975;50.390;8.640;2023-06-04T01:55:09;99319.56;;;9.71;83.26
54389;BME280;40975;50.390;8.640;2023-06-04T01:57:37;99315.53;;;9.77;82.82
54389;BME280;40975;50.390;8.640;2023-06-04T02:00:04;99316.50;;;9.76;81.83
54389;BME280;40975;50.390;8.640;2023-06-04T02:02:39;99324.03;;;9.71;83.10
54389;BME280;40975;50.390;8.640;2023-06-04T02:05:07;99321.63;;;9.58;83.28
54389;BME280;40975;50.390;8.640;2023-06-04T02:07:37;99324.09;;;9.49;84.00
54389;BME280;40975;50.390;8.640;2023-06-04T02:10:18;99324.25;;;9.48;84.30
54389;BME280;40975;50.390;8.640;2023-06-04T02:12:56;99327.44;;;9.42;85.41
54389;BME280;40975;50.390;8.640;2023-06-04T02:15:22;99328.41;;;9.41;85.13
54389;BME280;40975;50.390;8.640;2023-06-04T02:17:48;99326.00;;;9.38;84.12
54389;BME280;40975;50.390;8.640;2023-06-04T02:20:15;99338.28;;;9.39;85.12
54389;BME280;40975;50.390;8.640;2023-06-04T02:22:42;99329.06;;;9.33;85.43
54389;BME280;40975;50.390;8.640;2023-06-04T02:25:08;99334.19;;;9.25;86.75
54389;BME280;40975;50.390;8.640;2023-06-04T02:27:36;99335.72;;;9.27;86.16
54389;BME280;40975;50.390;8.640;2023-06-04T02:30:05;99338.91;;;9.21;86.34
54389;BME280;40975;50.390;8.640;2023-06-04T02:32:31;99344.03;;;9.13;87.12
54389;BME280;40975;50.390;8.640;2023-06-04T02:34:57;99336.22;;;9.11;86.64
54389;BME280;40975;50.390;8.640;2023-06-04T02:37:22;99337.25;;;8.99;88.01
54389;BME280;40975;50.390;8.640;2023-06-04T02:39:48;99335.28;;;8.91;88.39
54389;BME280;40975;50.390;8.640;2023-06-04T02:42:13;99345.78;;;8.81;88.08
54389;BME280;40975;50.390;8.640;2023-06-04T02:44:38;99330.44;;;8.75;88.37
54389;BME280;40975;50.390;8.640;2023-06-04T02:47:04;99340.91;;;8.77;88.86
54389;BME280;40975;50.390;8.640;2023-06-04T02:49:30;99336.25;;;8.69;90.62
54389;BME280;40975;50.390;8.640;2023-06-04T02:51:55;99333.94;;;8.54;90.77
54389;BME280;40975;50.390;8.640;2023-06-04T02:54:21;99346.31;;;8.54;90.98
54389;BME280;40975;50.390;8.640;2023-06-04T02:56:46;99339.00;;;8.46;91.92
54389;BME280;40975;50.390;8.640;2023-06-04T02:59:14;99347.69;;;8.37;93.47
54389;BME280;40975;50.390;8.640;2023-06-04T03:01:39;99346.59;;;8.39;93.59
54389;BME280;40975;50.390;8.640;2023-06-04T03:04:05;99333.56;;;8.27;94.72
54389;BME280;40975;50.390;8.640;2023-06-04T03:06:35;99345.19;;;8.24;95.40
54389;BME280;40975;50.390;8.640;2023-06-04T03:09:03;99338.53;;;8.08;95.84
54389;BME280;40975;50.390;8.640;2023-06-04T03:11:29;99337.22;;;8.03;96.11
54389;BME280;40975;50.390;8.640;2023-06-04T03:13:54;99333.19;;;7.87;96.73
54389;BME280;40975;50.390;8.640;2023-06-04T03:16:20;99349.06;;;7.87;97.54
54389;BME280;40975;50.390;8.640;2023-06-04T03:18:46;99350.25;;;7.83;97.14
54389;BME280;40975;50.390;8.640;2023-06-04T03:21:11;99346.53;;;7.86;98.07
54389;BME280;40975;50.390;8.640;2023-06-04T03:23:38;99347.47;;;7.85;97.63
54389;BME280;40975;50.390;8.640;2023-06-04T03:26:04;99339.44;;;7.86;96.89
54389;BME280;40975;50.390;8.640;2023-06-04T03:28:31;99358.41;;;7.91;96.66
54389;BME280;40975;50.390;8.640;2023-06-04T03:30:58;99345.56;;;7.87;96.93
54389;BME280;40975;50.390;8.640;2023-06-04T03:33:25;99351.56;;;7.89;96.74
54389;BME280;40975;50.390;8.640;2023-06-04T03:35:51;99353.63;;;7.85;96.97
54389;BME280;40975;50.390;8.640;2023-06-04T03:38:18;99351.56;;;7.89;96.75
54389;BME280;40975;50.390;8.640;2023-06-04T03:40:43;99349.88;;;7.88;96.94
54389;BME280;40975;50.390;8.640;2023-06-04T03:43:09;99352.88;;;7.94;96.81
54389;BME280;40975;50.390;8.640;2023-06-04T03:45:35;99346.66;;;7.84;97.23
54389;BME280;40975;50.390;8.640;2023-06-04T03:48:01;99353.50;;;7.87;97.21
54389;BME280;40975;50.390;8.640;2023-06-04T03:50:28;99352.28;;;7.91;97.31
54389;BME280;40975;50.390;8.640;2023-06-04T03:52:55;99349.75;;;7.89;97.82
54389;BME280;40975;50.390;8.640;2023-06-04T03:55:20;99351.69;;;7.87;97.77
54389;BME280;40975;50.390;8.640;2023-06-04T03:57:48;99351.78;;;7.97;97.03
54389;BME280;40975;50.390;8.640;2023-06-04T04:00:14;99345.66;;;8.08;96.33
54389;BME280;40975;50.390;8.640;2023-06-04T04:02:40;99345.84;;;8.16;97.24
54389;BME280;40975;50.390;8.640;2023-06-04T04:05:08;99348.19;;;8.31;95.54
54389;BME280;40975;50.390;8.640;2023-06-04T04:07:38;99347.31;;;8.42;95.38
54389;BME280;40975;50.390;8.640;2023-06-04T04:10:05;99346.31;;;8.54;93.09
54389;BME280;40975;50.390;8.640;2023-06-04T04:12:31;99334.97;;;8.63;94.16
54389;BME280;40975;50.390;8.640;2023-06-04T04:14:57;99350.06;;;8.73;93.23
54389;BME280;40975;50.390;8.640;2023-06-04T04:17:23;99348.59;;;8.80;93.44
54389;BME280;40975;50.390;8.640;2023-06-04T04:19:48;99348.63;;;8.90;92.28
54389;BME280;40975;50.390;8.640;2023-06-04T04:22:14;99351.50;;;8.98;91.92
54389;BME280;40975;50.390;8.640;2023-06-04T04:24:43;99357.94;;;9.05;91.59
54389;BME280;40975;50.390;8.640;2023-06-04T04:27:09;99355.47;;;9.13;90.49
54389;BME280;40975;50.390;8.640;2023-06-04T04:29:37;99358.53;;;9.18;91.04
54389;BME280;40975;50.390;8.640;2023-06-04T04:32:03;99356.50;;;9.22;92.32
54389;BME280;40975;50.390;8.640;2023-06-04T04:34:37;99357.50;;;9.31;93.28
54389;BME280;40975;50.390;8.640;2023-06-04T04:37:05;99361.41;;;9.37;92.13
54389;BME280;40975;50.390;8.640;2023-06-04T04:39:35;99360.91;;;9.43;91.65
54389;BME280;40975;50.390;8.640;2023-06-04T04:42:02;99354.34;;;9.47;90.17
54389;BME280;40975;50.390;8.640;2023-06-04T04:44:28;99363.31;;;9.56;87.99
54389;BME280;40975;50.390;8.640;2023-06-04T04:46:53;99354.69;;;9.63;88.18
54389;BME280;40975;50.390;8.640;2023-06-04T04:49:19;99343.69;;;9.68;87.44
54389;BME280;40975;50.390;8.640;2023-06-04T04:51:44;99358.09;;;9.85;87.74
54389;BME280;40975;50.390;8.640;2023-06-04T04:54:10;99353.09;;;9.92;87.73
54389;BME280;40975;50.390;8.640;2023-06-04T04:56:35;99367.03;;;10.04;88.23
54389;BME280;40975;50.390;8.640;2023-06-04T04:59:02;99360.50;;;10.08;87.05
54389;BME280;40975;50.390;8.640;2023-06-04T05:01:28;99351.56;;;10.09;85.99
54389;BME280;40975;50.390;8.640;2023-06-04T05:03:53;99367.66;;;10.27;85.87
54389;BME280;40975;50.390;8.640;2023-06-04T05:06:19;99360.81;;;10.34;84.64
54389;BME280;40975;50.390;8.640;2023-06-04T05:08:45;99353.03;;;10.42;83.98
54389;BME280;40975;50.390;8.640;2023-06-04T05:11:12;99365.16;;;10.55;84.11
54389;BME280;40975;50.390;8.640;2023-06-04T05:13:38;99367.22;;;10.81;81.47
54389;BME280;40975;50.390;8.640;2023-06-04T05:16:05;99375.47;;;10.87;82.40
54389;BME280;40975;50.390;8.640;2023-06-04T05:18:33;99365.78;;;11.06;78.98
54389;BME280;40975;50.390;8.640;2023-06-04T05:21:01;99366.88;;;11.23;78.74
54389;BME280;40975;50.390;8.640;2023-06-04T05:23:29;99374.38;;;11.38;77.51
54389;BME280;40975;50.390;8.640;2023-06-04T05:26:00;99374.31;;;11.57;75.45
54389;BME280;40975;50.390;8.640;2023-06-04T05:28:26;99386.25;;;11.71;76.42
54389;BME280;40975;50.390;8.640;2023-06-04T05:30:52;99383.63;;;11.99;74.13
54389;BME280;40975;50.390;8.640;2023-06-04T05:33:25;99392.47;;;12.18;73.22
54389;BME280;40975;50.390;8.640;2023-06-04T05:35:55;99395.97;;;12.36;72.26
54389;BME280;40975;50.390;8.640;2023-06-04T05:38:24;99386.31;;;12.71;69.56
54389;BME280;40975;50.390;8.640;2023-06-04T05:40:56;99401.53;;;13.05;66.73
54389;BME280;40975;50.390;8.640;2023-06-04T05:43:23;99390.66;;;13.86;65.02
54389;BME280;40975;50.390;8.640;2023-06-04T05:45:48;99382.84;;;14.77;59.62
54389;BME280;40975;50.390;8.640;2023-06-04T05:48:14;99414.22;;;15.81;56.92
54389;BME280;40975;50.390;8.640;2023-06-04T05:50:40;99411.22;;;16.70;53.43
54389;BME280;40975;50.390;8.640;2023-06-04T05:53:05;99414.91;;;17.46;51.35
54389;BME280;40975;50.390;8.640;2023-06-04T05:55:31;99414.25;;;18.03;50.77
54389;BME280;40975;50.390;8.640;2023-06-04T05:57:57;99419.72;;;18.47;48.83
54389;BME280;40975;50.390;8.640;2023-06-04T06:00:22;99428.91;;;18.96;48.00
54389;BME280;40975;50.390;8.640;2023-06-04T06:02:52;99433.34;;;19.10;47.34
54389;BME280;40975;50.390;8.640;2023-06-04T06:05:30;99427.69;;;19.62;45.13
54389;BME280;40975;50.390;8.640;2023-06-04T06:07:55;99418.78;;;19.62;43.88
54389;BME280;40975;50.390;8.640;2023-06-04T06:10:21;99427.28;;;19.58;45.74
54389;BME280;40975;50.390;8.640;2023-06-04T06:12:47;99434.03;;;19.83;43.62
54389;BME280;40975;50.390;8.640;2023-06-04T06:15:12;99423.31;;;19.90;43.16
54389;BME280;40975;50.390;8.640;2023-06-04T06:17:39;99432.53;;;19.73;43.45
54389;BME280;40975;50.390;8.640;2023-06-04T06:20:05;99437.38;;;20.33;43.09
54389;BME280;40975;50.390;8.640;2023-06-04T06:22:34;99437.91;;;20.15;41.53
54389;BME280;40975;50.390;8.640;2023-06-04T06:25:00;99439.66;;;20.30;40.88
54389;BME280;40975;50.390;8.640;2023-06-04T06:27:26;99440.69;;;20.29;41.58
54389;BME280;40975;50.390;8.640;2023-06-04T06:29:52;99437.53;;;20.18;42.15
54389;BME280;40975;50.390;8.640;2023-06-04T06:32:18;99441.31;;;19.89;41.94
54389;BME280;40975;50.390;8.640;2023-06-04T06:34:44;99443.84;;;19.62;42.51
54389;BME280;40975;50.390;8.640;2023-06-04T06:37:09;99442.19;;;19.04;43.62
54389;BME280;40975;50.390;8.640;2023-06-04T06:39:34;99438.34;;;18.70;45.11
54389;BME280;40975;50.390;8.640;2023-06-04T06:42:00;99445.94;;;18.67;45.30
54389;BME280;40975;50.390;8.640;2023-06-04T06:44:31;99446.53;;;18.25;46.92
54389;BME280;40975;50.390;8.640;2023-06-04T06:46:57;99447.88;;;17.84;47.76
54389;BME280;40975;50.390;8.640;2023-06-04T06:49:22;99449.59;;;17.62;48.83
54389;BME280;40975;50.390;8.640;2023-06-04T06:51:47;99446.91;;;17.47;48.89
54389;BME280;40975;50.390;8.640;2023-06-04T06:54:16;99447.97;;;17.46;49.01
54389;BME280;40975;50.390;8.640;2023-06-04T06:56:41;99451.00;;;17.43;52.00
54389;BME280;40975;50.390;8.640;2023-06-04T06:59:07;99451.56;;;17.53;48.57
54389;BME280;40975;50.390;8.640;2023-06-04T07:01:32;99448.56;;;17.33;48.40
54389;BME280;40975;50.390;8.640;2023-06-04T07:03:58;99445.00;;;17.71;49.38
54389;BME280;40975;50.390;8.640;2023-06-04T07:06:24;99449.56;;;18.00;49.94
54389;BME280;40975;50.390;8.640;2023-06-04T07:08:49;99449.22;;;18.25;48.31
54389;BME280;40975;50.390;8.640;2023-06-04T07:11:15;99448.31;;;18.18;47.34
54389;BME280;40975;50.390;8.640;2023-06-04T07:13:42;99452.47;;;18.57;47.37
54389;BME280;40975;50.390;8.640;2023-06-04T07:16:07;99456.72;;;18.67;46.65
54389;BME280;40975;50.390;8.640;2023-06-04T07:18:33;99456.00;;;18.79;47.55
54389;BME280;40975;50.390;8.640;2023-06-04T07:20:58;99453.00;;;19.39;46.80
54389;BME280;40975;50.390;8.640;2023-06-04T07:23:23;99453.72;;;19.48;45.43
54389;BME280;40975;50.390;8.640;2023-06-04T07:25:49;99461.03;;;19.90;46.01
54389;BME280;40975;50.390;8.640;2023-06-04T07:28:14;99464.97;;;20.35;46.31
54389;BME280;40975;50.390;8.640;2023-06-04T07:30:40;99465.28;;;20.19;43.22
54389;BME280;40975;50.390;8.640;2023-06-04T07:33:05;99477.06;;;20.73;42.97
54389;BME280;40975;50.390;8.640;2023-06-04T07:35:31;99471.72;;;21.81;43.58
54389;BME280;40975;50.390;8.640;2023-06-04T07:37:56;99472.09;;;21.91;41.37
54389;BME280;40975;50.390;8.640;2023-06-04T07:40:22;99475.31;;;23.04;41.15
54389;BME280;40975;50.390;8.640;2023-06-04T07:42:47;99473.81;;;23.59;39.60
54389;BME280;40975;50.390;8.640;2023-06-04T07:45:13;99476.09;;;23.81;40.99
54389;BME280;40975;50.390;8.640;2023-06-04T07:47:39;99471.97;;;23.97;39.00
54389;BME280;40975;50.390;8.640;2023-06-04T07:50:05;99473.72;;;23.22;37.99
54389;BME280;40975;50.390;8.640;2023-06-04T07:52:31;99479.78;;;24.24;38.22
54389;BME280;40975;50.390;8.640;2023-06-04T07:54:56;99477.03;;;24.42;36.48
54389;BME280;40975;50.390;8.640;2023-06-04T07:57:22;99485.41;;;25.02;38.62
54389;BME280;40975;50.390;8.640;2023-06-04T07:59:47;99484.88;;;25.23;36.94
54389;BME280;40975;50.390;8.640;2023-06-04T08:02:12;99492.22;;;25.82;36.01
54389;BME280;40975;50.390;8.640;2023-06-04T08:04:40;99485.91;;;26.29;34.68
54389;BME280;40975;50.390;8.640;2023-06-04T08:07:05;99486.63;;;26.53;33.10
54389;BME280;40975;50.390;8.640;2023-06-04T08:09:31;99489.91;;;26.56;33.54
54389;BME280;40975;50.390;8.640;2023-06-04T08:11:56;99485.47;;;26.49;33.18
54389;BME280;40975;50.390;8.640;2023-06-04T08:14:21;99469.38;;;26.48;32.70
54389;BME280;40975;50.390;8.640;2023-06-04T08:16:47;99479.16;;;27.07;31.93
54389;BME280;40975;50.390;8.640;2023-06-04T08:19:12;99471.31;;;27.10;32.26
54389;BME280;40975;50.390;8.640;2023-06-04T08:21:38;99472.88;;;27.97;31.58
54389;BME280;40975;50.390;8.640;2023-06-04T08:24:06;99475.72;;;28.29;30.83
54389;BME280;40975;50.390;8.640;2023-06-04T08:26:31;99475.94;;;28.45;28.94
54389;BME280;40975;50.390;8.640;2023-06-04T08:28:57;99474.59;;;28.47;28.35
54389;BME280;40975;50.390;8.640;2023-06-04T08:31:23;99476.38;;;29.24;27.30
54389;BME280;40975;50.390;8.640;2023-06-04T08:33:48;99470.78;;;28.76;27.39
54389;BME280;40975;50.390;8.640;2023-06-04T08:36:14;99469.81;;;28.60;27.06
54389;BME280;40975;50.390;8.640;2023-06-04T08:38:41;99481.53;;;28.60;28.21
54389;BME280;40975;50.390;8.640;2023-06-04T08:41:13;99484.44;;;28.76;26.63
54389;BME280;40975;50.390;8.640;2023-06-04T08:43:40;99482.88;;;28.85;27.00
54389;BME280;40975;50.390;8.640;2023-06-04T08:46:09;99489.19;;;29.18;27.39
54389;BME280;40975;50.390;8.640;2023-06-04T08:48:35;99487.41;;;29.34;27.38
54389;BME280;40975;50.390;8.640;2023-06-04T08:51:05;99487.53;;;29.17;26.88
54389;BME280;40975;50.390;8.640;2023-06-04T08:53:31;99496.69;;;29.71;26.42
54389;BME280;40975;50.390;8.640;2023-06-04T08:55:56;99496.69;;;29.71;26.73
54389;BME280;40975;50.390;8.640;2023-06-04T08:58:23;99495.66;;;30.40;26.49
54389;BME280;40975;50.390;8.640;2023-06-04T09:00:48;99496.44;;;30.36;26.57
54389;BME280;40975;50.390;8.640;2023-06-04T09:03:15;99491.44;;;29.64;26.73
54389;BME280;40975;50.390;8.640;2023-06-04T09:05:41;99495.66;;;30.35;25.92
54389;BME280;40975;50.390;8.640;2023-06-04T09:08:14;99489.25;;;31.19;25.47
54389;BME280;40975;50.390;8.640;2023-06-04T09:10:41;99500.72;;;30.85;25.71
54389;BME280;40975;50.390;8.640;2023-06-04T09:13:07;99494.13;;;30.76;26.24
54389;BME280;40975;50.390;8.640;2023-06-04T09:15:33;99494.72;;;31.45;26.06
54389;BME280;40975;50.390;8.640;2023-06-04T09:17:58;99494.72;;;31.35;24.66
54389;BME280;40975;50.390;8.640;2023-06-04T09:20:24;99492.50;;;31.06;25.58
54389;BME280;40975;50.390;8.640;2023-06-04T09:22:49;99503.72;;;31.61;25.90
54389;BME280;40975;50.390;8.640;2023-06-04T09:25:24;99499.91;;;31.36;25.67
54389;BME280;40975;50.390;8.640;2023-06-04T09:27:51;99502.66;;;32.43;24.90
54389;BME280;40975;50.390;8.640;2023-06-04T09:30:17;99502.16;;;32.36;26.12
54389;BME280;40975;50.390;8.640;2023-06-04T09:32:42;99499.59;;;31.84;25.32
54389;BME280;40975;50.390;8.640;2023-06-04T09:37:35;99493.97;;;32.15;25.30
54389;BME280;40975;50.390;8.640;2023-06-04T09:40:00;99500.66;;;31.93;24.69
54389;BME280;40975;50.390;8.640;2023-06-04T09:42:26;99503.25;;;32.35;24.45
54389;BME280;40975;50.390;8.640;2023-06-04T09:44:51;99499.09;;;31.41;24.19
54389;BME280;40975;50.390;8.640;2023-06-04T09:47:17;99499.25;;;31.96;25.30
54389;BME280;40975;50.390;8.640;2023-06-04T09:49:43;99492.22;;;31.69;24.45
54389;BME280;40975;50.390;8.640;2023-06-04T09:52:09;99504.34;;;32.34;23.64
54389;BME280;40975;50.390;8.640;2023-06-04T09:54:37;99497.25;;;32.22;22.81
54389;BME280;40975;50.390;8.640;2023-06-04T09:57:04;99503.41;;;31.93;23.54
54389;BME280;40975;50.390;8.640;2023-06-04T09:59:38;99481.56;;;31.37;24.45
54389;BME280;40975;50.390;8.640;2023-06-04T10:02:05;99492.91;;;32.11;24.92
54389;BME280;40975;50.390;8.640;2023-06-04T10:04:35;99489.75;;;31.68;25.45
54389;BME280;40975;50.390;8.640;2023-06-04T10:07:04;99479.16;;;32.11;25.93
54389;BME280;40975;50.390;8.640;2023-06-04T10:09:30;99485.91;;;31.79;23.42
54389;BME280;40975;50.390;8.640;2023-06-04T10:11:57;99489.72;;;32.54;24.70
54389;BME280;40975;50.390;8.640;2023-06-04T10:14:30;99487.28;;;32.47;24.13
54389;BME280;40975;50.390;8.640;2023-06-04T10:16:59;99487.28;;;32.42;24.36
54389;BME280;40975;50.390;8.640;2023-06-04T10:19:25;99489.28;;;32.31;22.75
54389;BME280;40975;50.390;8.640;2023-06-04T10:21:52;99481.50;;;31.62;23.89
54389;BME280;40975;50.390;8.640;2023-06-04T10:24:18;99486.59;;;32.10;23.64
54389;BME280;40975;50.390;8.640;2023-06-04T10:26:45;99474.56;;;31.96;25.82
54389;BME280;40975;50.390;8.640;2023-06-04T10:29:11;99470.50;;;31.88;24.03
54389;BME280;40975;50.390;8.640;2023-06-04T10:31:37;99480.16;;;31.70;24.12
54389;BME280;40975;50.390;8.640;2023-06-04T10:34:03;99470.81;;;30.68;23.83
54389;BME280;40975;50.390;8.640;2023-06-04T10:36:28;99474.19;;;31.11;25.22
54389;BME280;40975;50.390;8.640;2023-06-04T10:38:55;99483.75;;;30.88;26.05
54389;BME280;40975;50.390;8.640;2023-06-04T10:41:21;99475.53;;;31.14;27.40
54389;BME280;40975;50.390;8.640;2023-06-04T10:43:49;99475.22;;;31.05;23.67
54389;BME280;40975;50.390;8.640;2023-06-04T10:46:19;99473.34;;;31.11;25.26
54389;BME280;40975;50.390;8.640;2023-06-04T10:48:48;99474.44;;;31.36;23.78
54389;BME280;40975;50.390;8.640;2023-06-04T10:51:15;99473.00;;;29.92;25.19
54389;BME280;40975;50.390;8.640;2023-06-04T10:53:40;99471.75;;;30.15;24.97
54389;BME280;40975;50.390;8.640;2023-06-04T10:56:05;99467.34;;;30.09;25.74
54389;BME280;40975;50.390;8.640;2023-06-04T10:58:34;99469.28;;;30.08;26.32
54389;BME280;40975;50.390;8.640;2023-06-04T11:01:00;99466.56;;;30.08;27.03
54389;BME280;40975;50.390;8.640;2023-06-04T11:03:35;99467.25;;;29.08;26.43
54389;BME280;40975;50.390;8.640;2023-06-04T11:06:01;99467.69;;;28.94;27.11
54389;BME280;40975;50.390;8.640;2023-06-04T11:08:28;99463.13;;;28.73;25.67
54389;BME280;40975;50.390;8.640;2023-06-04T11:10:54;99459.25;;;27.57;26.41
54389;BME280;40975;50.390;8.640;2023-06-04T11:13:25;99460.81;;;27.92;28.15
54389;BME280;40975;50.390;8.640;2023-06-04T11:15:51;99455.44;;;27.98;26.94
54389;BME280;40975;50.390;8.640;2023-06-04T11:18:22;99454.47;;;27.87;28.21
54389;BME280;40975;50.390;8.640;2023-06-04T11:20:50;99453.47;;;28.15;28.73
54389;BME280;40975;50.390;8.640;2023-06-04T11:23:23;99448.44;;;28.07;28.04
54389;BME280;40975;50.390;8.640;2023-06-04T11:25:52;99447.78;;;27.77;27.96
54389;BME280;40975;50.390;8.640;2023-06-04T11:28:17;99442.47;;;27.31;27.35
54389;BME280;40975;50.390;8.640;2023-06-04T11:30:43;99446.06;;;27.32;28.69
54389;BME280;40975;50.390;8.640;2023-06-04T11:33:08;99446.63;;;26.83;26.90
54389;BME280;40975;50.390;8.640;2023-06-04T11:35:42;99445.78;;;27.34;28.63
54389;BME280;40975;50.390;8.640;2023-06-04T11:38:08;99449.75;;;27.26;27.73
54389;BME280;40975;50.390;8.640;2023-06-04T11:40:34;99440.00;;;27.86;27.48
54389;BME280;40975;50.390;8.640;2023-06-04T11:43:00;99442.47;;;27.66;29.30
54389;BME280;40975;50.390;8.640;2023-06-04T11:45:26;99440.94;;;27.19;29.15
54389;BME280;40975;50.390;8.640;2023-06-04T11:47:53;99447.28;;;26.15;29.08
54389;BME280;40975;50.390;8.640;2023-06-04T11:50:21;99440.19;;;26.60;31.76
54389;BME280;40975;50.390;8.640;2023-06-04T11:52:51;99435.91;;;26.93;31.78
54389;BME280;40975;50.390;8.640;2023-06-04T11:55:17;99438.72;;;26.98;30.95
54389;BME280;40975;50.390;8.640;2023-06-04T11:57:43;99421.63;;;27.03;28.63
54389;BME280;40975;50.390;8.640;2023-06-04T12:00:08;99428.47;;;27.06;29.56
54389;BME280;40975;50.390;8.640;2023-06-04T12:02:37;99434.38;;;26.68;29.78
54389;BME280;40975;50.390;8.640;2023-06-04T12:05:16;99434.34;;;26.22;29.57
54389;BME280;40975;50.390;8.640;2023-06-04T12:07:44;99431.22;;;25.90;30.44
54389;BME280;40975;50.390;8.640;2023-06-04T12:10:10;99425.03;;;25.42;29.69
54389;BME280;40975;50.390;8.640;2023-06-04T12:12:37;99418.13;;;25.87;32.02
54389;BME280;40975;50.390;8.640;2023-06-04T12:15:02;99417.44;;;26.20;32.21
54389;BME280;40975;50.390;8.640;2023-06-04T12:17:31;99416.09;;;26.35;30.78
54389;BME280;40975;50.390;8.640;2023-06-04T12:19:56;99419.00;;;26.45;30.77
54389;BME280;40975;50.390;8.640;2023-06-04T12:22:24;99417.03;;;26.58;31.26
54389;BME280;40975;50.390;8.640;2023-06-04T12:24:54;99411.53;;;26.23;31.63
54389;BME280;40975;50.390;8.640;2023-06-04T12:27:25;99412.69;;;25.87;30.77
54389;BME280;40975;50.390;8.640;2023-06-04T12:30:02;99414.97;;;26.19;33.36
54389;BME280;40975;50.390;8.640;2023-06-04T12:32:28;99417.72;;;26.36;32.62
54389;BME280;40975;50.390;8.640;2023-06-04T12:34:54;99407.75;;;26.13;30.21
54389;BME280;40975;50.390;8.640;2023-06-04T12:37:20;99414.97;;;26.07;30.77
54389;BME280;40975;50.390;8.640;2023-06-04T12:39:46;99411.06;;;26.15;30.50
54389;BME280;40975;50.390;8.640;2023-06-04T12:42:11;99418.06;;;25.99;30.89
54389;BME280;40975;50.390;8.640;2023-06-04T12:44:38;99414.66;;;25.91;30.18
54389;BME280;40975;50.390;8.640;2023-06-04T12:47:04;99415.41;;;25.87;29.79
54389;BME280;40975;50.390;8.640;2023-06-04T12:49:30;99407.28;;;25.75;30.00
54389;BME280;40975;50.390;8.640;2023-06-04T12:51:55;99408.09;;;26.16;30.96
54389;BME280;40975;50.390;8.640;2023-06-04T12:54:20;99408.25;;;25.98;30.15
54389;BME280;40975;50.390;8.640;2023-06-04T12:56:46;99398.44;;;26.08;30.18
54389;BME280;40975;50.390;8.640;2023-06-04T12:59:11;99409.28;;;25.80;28.93
54389;BME280;40975;50.390;8.640;2023-06-04T13:01:36;99412.63;;;25.58;30.67
54389;BME280;40975;50.390;8.640;2023-06-04T13:04:05;99404.81;;;25.61;30.98
54389;BME280;40975;50.390;8.640;2023-06-04T13:06:31;99404.56;;;25.39;30.28